Terminal Aerodrome Forecast
Issued by NWS

Home | Current Version | Previous Version | Graphics & Text | Print | Product List | Glossary On
Versions: 1 2 3 4 5 6 7 8 9 10 11 12 13 14 15 16
355
FTUS42 KMHX 031740
TAFISO
TAF
KISO 031740Z 0318/0418 20017G28KT P6SM SHRA BKN035
     FM032100 19018G26KT 4SM SHRA BR BKN025
     FM040000 19014G22KT 4SM SHRA BR VCTS OVC015CB
     FM040600 20013G20KT 4SM SHRA BR SCT007 OVC010
     FM041200 27008KT 4SM -RA BR BKN007
      AMD LTD TO CLD VIS AND WIND=

USA.gov is the U.S. government's official web portal to all federal, state and local government web resources and services.